Terminal Aerodrome Forecast
Issued by NWS Twin Cities, MN

Home | Current Version | Previous Version | Text Only | Print | Product List | Glossary On
Versions: 1 2 3 4 5 6 7 8 9 10 11 12 13 14 15 16 17 18 19 20 21 22 23 24 25 26 27 28 29
894
FTUS43 KMPX 271447 AAA
TAFMSP
TAF AMD
KMSP 271447Z 2715/2818 13012KT P6SM -SHRA SCT040 OVC070
      TEMPO 2715/2719 6SM -SHRA OVC050
     FM271900 14007KT P6SM VCSH SCT030 BKN080
     FM272300 10006KT P6SM SCT025 OVC150
     FM280800 07003KT 6SM BR SCT015 OVC040
     FM281100 06004KT 4SM -SHRA BR SCT015 OVC030=

USA.gov is the U.S. government's official web portal to all federal, state and local government web resources and services.